This is the latest recevied weather packets stored in our database for station/object YO8SDE-8. If no packets are shown the sender has not sent any weather packets the latest 10 day(s).
| Time | Temp. | Humidity | Pressure | Rain* | Wind** | Luminosity | Snow |
|---|---|---|---|---|---|---|---|
| 1777719064 | 16.11° C | 39% | 1013 hPa | 0 mm | - | - | - |
| 1777718764 | 16.67° C | 38% | 1012.9 hPa | 0 mm | - | - | - |
| 1777718464 | 17.78° C | 38% | 1012.9 hPa | 0 mm | - | - | - |
| 1777718164 | 18.33° C | 37% | 1013 hPa | 0 mm | - | - | - |
| 1777717864 | 18.89° C | 37% | 1013 hPa | 0 mm | - | - | - |
| 1777717564 | 19.44° C | 37% | 1012.9 hPa | 0 mm | - | - | - |
| 1777717264 | 20° C | 36% | 1012.9 hPa | 0 mm | - | - | - |
| 1777716964 | 21.11° C | 35% | 1013 hPa | 0 mm | - | - | - |
| 1777716664 | 20.56° C | 39% | 1013 hPa | 0 mm | - | - | - |
| 1777716364 | 17.22° C | 41% | 1013 hPa | 0 mm | - | - | - |
| 1777716064 | 16.67° C | 41% | 1013.2 hPa | 0 mm | - | - | - |
| 1777715764 | 17.22° C | 40% | 1013.2 hPa | 0 mm | - | - | - |
| 1777715464 | 17.78° C | 39% | 1013.2 hPa | 0 mm | - | - | - |
| 1777715164 | 17.78° C | 41% | 1013.2 hPa | 0 mm | - | - | - |
| 1777714864 | 16.11° C | 44% | 1013.2 hPa | 0 mm | - | - | - |
| 1777714564 | 15° C | 44% | 1013.3 hPa | 0 mm | - | - | - |
| 1777714264 | 15° C | 43% | 1013.2 hPa | 0 mm | - | - | - |
| 1777713964 | 15.56° C | 43% | 1013.3 hPa | 0 mm | - | - | - |
| 1777713664 | 15.56° C | 46% | 1013.2 hPa | 0 mm | - | - | - |
| 1777713364 | 14.44° C | 47% | 1013.2 hPa | 0 mm | - | - | - |
| 1777713064 | 13.89° C | 47% | 1013.2 hPa | 0 mm | - | - | - |
| 1777712764 | 14.44° C | 47% | 1013.2 hPa | 0 mm | - | - | - |
| 1777712464 | 14.44° C | 46% | 1013.3 hPa | 0 mm | - | - | - |
| 1777712164 | 14.44° C | 46% | 1013.4 hPa | 0 mm | - | - | - |
| 1777711864 | 15° C | 46% | 1013.4 hPa | 0 mm | - | - | - |
* Rain latest hour (hover to see other rain measurements)
** Current wind speed in m/s (hover to see current wind gust speed)